createdAt,value
2019-04-16T00:00:29.004Z,3.3
2019-04-16T00:01:28.940Z,3.3
2019-04-16T00:02:29.006Z,3.3
2019-04-16T00:03:29.036Z,3.3
2019-04-16T00:04:29.154Z,3.3
2019-04-16T00:05:29.178Z,3.2
2019-04-16T00:06:29.173Z,3.3
2019-04-16T00:07:29.250Z,3.2
2019-04-16T00:08:29.314Z,3.2
2019-04-16T00:09:29.375Z,3.2
2019-04-16T00:10:29.428Z,3.2
2019-04-16T00:11:29.463Z,3.2
2019-04-16T00:12:29.488Z,3.2
2019-04-16T00:13:29.540Z,3.2
2019-04-16T00:14:29.593Z,3.2
2019-04-16T00:15:29.644Z,3.2
2019-04-16T00:16:29.689Z,3.2
2019-04-16T00:17:29.758Z,3.2
2019-04-16T00:18:29.817Z,3.3
2019-04-16T00:19:29.815Z,3.3
2019-04-16T00:20:29.873Z,3.3
2019-04-16T00:21:29.925Z,3.3
2019-04-16T00:22:29.960Z,3.3
2019-04-16T00:23:30.026Z,3.3
2019-04-16T00:24:30.052Z,3.3
2019-04-16T00:25:30.098Z,3.3
2019-04-16T00:26:30.178Z,3.3
2019-04-16T00:27:30.167Z,3.2
2019-04-16T00:28:30.665Z,3.2
2019-04-16T00:29:32.915Z,3.2
2019-04-16T00:30:30.296Z,3.2
2019-04-16T00:31:30.302Z,3.1
2019-04-16T00:32:30.313Z,3.1
2019-04-16T00:33:30.340Z,3.1
2019-04-16T00:34:30.367Z,3.1
2019-04-16T00:35:30.423Z,3
2019-04-16T00:36:30.470Z,3
2019-04-16T00:37:30.550Z,3
2019-04-16T00:38:40.302Z,3
2019-04-16T00:39:30.580Z,3
2019-04-16T00:40:30.619Z,3
2019-04-16T00:41:30.667Z,2.9
2019-04-16T00:42:30.686Z,2.9
2019-04-16T00:43:30.711Z,2.9
2019-04-16T00:44:30.736Z,2.8
2019-04-16T00:45:30.785Z,2.8
2019-04-16T00:46:30.800Z,2.8
2019-04-16T00:47:30.859Z,2.7
2019-04-16T00:48:30.882Z,2.7
2019-04-16T00:49:30.925Z,2.7
2019-04-16T00:50:30.981Z,2.7
2019-04-16T00:51:30.982Z,2.6
2019-04-16T00:52:31.004Z,2.6
2019-04-16T00:53:31.037Z,2.7
2019-04-16T00:54:31.070Z,2.7
2019-04-16T00:55:31.098Z,2.7
2019-04-16T00:56:31.130Z,2.6
2019-04-16T00:57:31.165Z,2.6
2019-04-16T00:58:31.188Z,2.6
2019-04-16T00:59:31.224Z,2.6
2019-04-16T01:00:31.333Z,2.6
2019-04-16T01:01:31.274Z,2.6
2019-04-16T01:02:31.289Z,2.6
2019-04-16T01:03:31.338Z,2.6
2019-04-16T01:04:31.389Z,2.6
2019-04-16T01:05:34.994Z,2.5
2019-04-16T01:06:31.401Z,2.5
2019-04-16T01:07:31.438Z,2.5
2019-04-16T01:08:31.444Z,2.5
2019-04-16T01:09:31.562Z,2.5
2019-04-16T01:10:31.487Z,2.5
2019-04-16T01:11:31.521Z,2.4
2019-04-16T01:12:31.523Z,2.4
2019-04-16T01:13:31.539Z,2.4
2019-04-16T01:14:31.577Z,2.4
2019-04-16T01:15:31.921Z,2.4
2019-04-16T01:16:32.898Z,2.4
2019-04-16T01:17:33.335Z,2.4
2019-04-16T01:18:31.617Z,2.4
2019-04-16T01:19:31.655Z,2.3
2019-04-16T01:20:31.663Z,2.3
2019-04-16T01:21:31.702Z,2.3
2019-04-16T01:22:31.689Z,2.3
2019-04-16T01:23:31.706Z,2.3
2019-04-16T01:24:31.729Z,2.3
2019-04-16T01:25:31.731Z,2.3
2019-04-16T01:26:31.753Z,2.3
2019-04-16T01:27:31.739Z,2.3
2019-04-16T01:28:32.614Z,2.3
2019-04-16T01:29:33.821Z,2.3
2019-04-16T01:30:36.257Z,2.3
2019-04-16T01:31:31.799Z,2.3
2019-04-16T01:32:31.822Z,2.3
2019-04-16T01:33:31.798Z,2.3
2019-04-16T01:34:31.802Z,2.3
2019-04-16T01:35:31.795Z,2.3
2019-04-16T01:36:31.827Z,2.3
2019-04-16T01:37:31.857Z,2.3
2019-04-16T01:38:31.827Z,2.3
2019-04-16T01:39:31.815Z,2.2
2019-04-16T01:40:31.828Z,2.2
2019-04-16T01:41:31.828Z,2.3
2019-04-16T01:42:31.837Z,2.3
2019-04-16T01:43:31.844Z,2.3
2019-04-16T01:44:31.935Z,2.3
2019-04-16T01:45:31.958Z,2.3
2019-04-16T01:46:32.783Z,2.3
2019-04-16T01:47:35.710Z,2.3
2019-04-16T01:48:32.161Z,2.3
2019-04-16T01:49:32.204Z,2.3
2019-04-16T01:50:32.261Z,2.4
2019-04-16T01:51:32.338Z,2.4
2019-04-16T01:52:32.368Z,2.4
2019-04-16T01:53:32.418Z,2.4
2019-04-16T01:54:32.706Z,2.3
2019-04-16T01:55:32.532Z,2.3
2019-04-16T01:56:32.615Z,2.3
2019-04-16T01:57:32.656Z,2.3
2019-04-16T01:58:33.815Z,2.3
2019-04-16T01:59:35.551Z,2.2
2019-04-16T02:00:32.826Z,2.2
2019-04-16T02:01:32.869Z,2.2
2019-04-16T02:02:32.918Z,2.2
2019-04-16T02:03:32.976Z,2.2
2019-04-16T02:04:33.050Z,2.1
2019-04-16T02:05:33.089Z,2.1
2019-04-16T02:06:33.174Z,2.1
2019-04-16T02:07:33.211Z,2.1
2019-04-16T02:08:33.214Z,2.1
2019-04-16T02:09:34.570Z,2.1
2019-04-16T02:10:35.373Z,2.1
2019-04-16T02:11:35.921Z,2
2019-04-16T02:12:33.370Z,2
2019-04-16T02:13:33.422Z,2
2019-04-16T02:14:33.510Z,2
2019-04-16T02:15:33.522Z,2
2019-04-16T02:16:33.620Z,2
2019-04-16T02:17:33.614Z,2
2019-04-16T02:18:33.640Z,2
2019-04-16T02:19:33.706Z,1.9
2019-04-16T02:20:38.293Z,2
2019-04-16T02:21:33.819Z,2
2019-04-16T02:22:33.815Z,2
2019-04-16T02:23:33.887Z,2
2019-04-16T02:24:33.938Z,2
2019-04-16T02:25:33.998Z,2
2019-04-16T02:26:34.055Z,2
2019-04-16T02:27:34.124Z,2
2019-04-16T02:28:34.170Z,1.9
2019-04-16T02:29:34.206Z,1.9
2019-04-16T02:30:38.975Z,1.9
2019-04-16T02:31:34.293Z,1.9
2019-04-16T02:32:34.343Z,1.9
2019-04-16T02:33:34.366Z,1.9
2019-04-16T02:34:34.447Z,1.8
2019-04-16T02:35:34.459Z,1.8
2019-04-16T02:36:34.541Z,1.8
2019-04-16T02:37:36.245Z,1.8
2019-04-16T02:38:34.609Z,1.8
2019-04-16T02:39:47.456Z,1.9
2019-04-16T02:40:34.721Z,1.9
2019-04-16T02:41:34.730Z,1.9
2019-04-16T02:42:34.796Z,1.9
2019-04-16T02:43:39.380Z,1.9
2019-04-16T02:44:34.834Z,1.9
2019-04-16T02:45:34.817Z,1.9
2019-04-16T02:46:34.867Z,1.9
2019-04-16T02:47:39.630Z,1.9
2019-04-16T02:48:34.956Z,1.8
2019-04-16T02:49:35.003Z,1.8
2019-04-16T02:50:35.052Z,1.8
2019-04-16T02:51:39.502Z,1.9
2019-04-16T02:52:35.066Z,1.9
2019-04-16T02:53:35.058Z,1.9
2019-04-16T02:54:35.121Z,1.9
2019-04-16T02:55:35.150Z,1.9
2019-04-16T02:56:35.162Z,1.9
2019-04-16T02:57:35.195Z,1.9
2019-04-16T02:58:35.397Z,1.9
2019-04-16T02:59:35.295Z,1.9
2019-04-16T03:00:35.282Z,1.9
2019-04-16T03:01:35.339Z,1.9
2019-04-16T03:02:35.447Z,1.9
2019-04-16T03:03:35.389Z,1.9
2019-04-16T03:04:35.409Z,1.8
2019-04-16T03:05:35.464Z,1.8
2019-04-16T03:06:35.481Z,1.8
2019-04-16T03:07:35.526Z,1.8
2019-04-16T03:08:36.010Z,1.7
2019-04-16T03:09:39.715Z,1.7
2019-04-16T03:10:35.673Z,1.7
2019-04-16T03:11:35.609Z,1.6
2019-04-16T03:12:35.642Z,1.6
2019-04-16T03:13:35.677Z,1.6
2019-04-16T03:14:35.699Z,1.6
2019-04-16T03:15:35.739Z,1.6
2019-04-16T03:16:37.876Z,1.6
2019-04-16T03:17:35.770Z,1.6
2019-04-16T03:18:35.823Z,1.6
2019-04-16T03:19:38.727Z,1.7
2019-04-16T03:20:35.840Z,1.7
2019-04-16T03:21:35.855Z,1.7
2019-04-16T03:22:35.887Z,1.7
2019-04-16T03:23:37.476Z,1.7
2019-04-16T03:24:37.450Z,1.7
2019-04-16T03:25:35.935Z,1.7
2019-04-16T03:26:35.925Z,1.7
2019-04-16T03:27:35.964Z,1.7
2019-04-16T03:28:35.988Z,1.7
2019-04-16T03:29:36.011Z,1.6
2019-04-16T03:30:42.010Z,1.6
2019-04-16T03:31:35.998Z,1.6
2019-04-16T03:32:36.392Z,1.5
2019-04-16T03:33:36.012Z,1.5
2019-04-16T03:34:36.041Z,1.5
2019-04-16T03:35:36.033Z,1.5
2019-04-16T03:36:36.052Z,1.4
2019-04-16T03:37:36.066Z,1.4
2019-04-16T03:38:36.949Z,1.4
2019-04-16T03:39:36.064Z,1.4
2019-04-16T03:40:36.063Z,1.4
2019-04-16T03:41:36.054Z,1.4
2019-04-16T03:42:36.086Z,1.4
2019-04-16T03:43:36.078Z,1.4
2019-04-16T03:44:37.125Z,1.4
2019-04-16T03:45:37.462Z,1.4
2019-04-16T03:46:36.156Z,1.4
2019-04-16T03:47:36.180Z,1.4
2019-04-16T03:48:36.220Z,1.3
2019-04-16T03:49:36.287Z,1.3
2019-04-16T03:50:36.308Z,1.3
2019-04-16T03:51:36.562Z,1.3
2019-04-16T03:52:37.374Z,1.3
2019-04-16T03:53:36.478Z,1.3
2019-04-16T03:54:36.551Z,1.3
2019-04-16T03:55:36.595Z,1.2
2019-04-16T03:56:36.655Z,1.2
2019-04-16T03:57:36.678Z,1.2
2019-04-16T03:58:38.340Z,1.2
2019-04-16T03:59:39.932Z,1.2
2019-04-16T04:00:36.731Z,1.2
2019-04-16T04:01:36.819Z,1.2
2019-04-16T04:02:36.951Z,1.2
2019-04-16T04:03:36.932Z,1.2
2019-04-16T04:04:36.951Z,1.2
2019-04-16T04:05:37.013Z,1.2
2019-04-16T04:06:39.387Z,1.2
2019-04-16T04:07:37.065Z,1.2
2019-04-16T04:08:37.063Z,1.2
2019-04-16T04:09:37.069Z,1.2
2019-04-16T04:10:37.902Z,1.2
2019-04-16T04:11:40.806Z,1.3
2019-04-16T04:12:37.238Z,1.3
2019-04-16T04:13:37.217Z,1.3
2019-04-16T04:14:37.287Z,1.3
2019-04-16T04:15:38.292Z,1.3
2019-04-16T04:16:37.285Z,1.4
2019-04-16T04:17:38.594Z,1.4
2019-04-16T04:18:37.325Z,1.3
2019-04-16T04:19:37.325Z,1.3
2019-04-16T04:20:37.374Z,1.3
2019-04-16T04:21:37.453Z,1.3
2019-04-16T04:22:37.464Z,1.3
2019-04-16T04:23:37.539Z,1.2
2019-04-16T04:24:37.542Z,1.2
2019-04-16T04:25:37.591Z,1.2
2019-04-16T04:26:40.855Z,1.2
2019-04-16T04:27:37.615Z,1.2
2019-04-16T04:28:37.736Z,1.1
2019-04-16T04:29:37.685Z,1.1
2019-04-16T04:30:37.733Z,1.1
2019-04-16T04:31:37.758Z,1.1
2019-04-16T04:32:37.804Z,1.1
2019-04-16T04:33:41.325Z,1.1
2019-04-16T04:34:37.911Z,1.1
2019-04-16T04:35:37.893Z,1.1
2019-04-16T04:36:37.948Z,1.1
2019-04-16T04:37:37.981Z,1.2
2019-04-16T04:38:38.405Z,1.2
2019-04-16T04:39:38.013Z,1.2
2019-04-16T04:40:44.536Z,1.2
2019-04-16T04:41:38.082Z,1.2
2019-04-16T04:42:38.121Z,1.1
2019-04-16T04:43:38.165Z,1.1
2019-04-16T04:44:38.142Z,1.1
2019-04-16T04:45:40.705Z,1.1
2019-04-16T04:46:38.225Z,1.1
2019-04-16T04:47:38.246Z,1.1
2019-04-16T04:48:38.276Z,1.1
2019-04-16T04:49:38.283Z,1.1
2019-04-16T04:50:38.383Z,1.1
2019-04-16T04:51:42.379Z,1.1
2019-04-16T04:52:38.405Z,1.1
2019-04-16T04:53:40.895Z,1.1
2019-04-16T04:54:38.411Z,1.1
2019-04-16T04:55:38.477Z,1.1
2019-04-16T04:56:38.458Z,1.1
2019-04-16T04:57:38.478Z,1.1
2019-04-16T04:58:38.494Z,1.1
2019-04-16T04:59:38.488Z,1.1
2019-04-16T05:00:40.247Z,1.1
2019-04-16T05:01:41.933Z,1.1
2019-04-16T05:02:38.530Z,1.1
2019-04-16T05:03:38.673Z,1.1
2019-04-16T05:04:38.585Z,1.1
2019-04-16T05:05:38.595Z,1.1
2019-04-16T05:06:38.622Z,1.2
2019-04-16T05:07:38.665Z,1.2
2019-04-16T05:08:38.670Z,1.2
2019-04-16T05:09:38.675Z,1.2
2019-04-16T05:10:42.649Z,1.2
2019-04-16T05:11:38.706Z,1.2
2019-04-16T05:12:38.718Z,1.2
2019-04-16T05:13:38.733Z,1.2
2019-04-16T05:14:38.747Z,1.3
2019-04-16T05:15:38.774Z,1.3
2019-04-16T05:16:38.781Z,1.3
2019-04-16T05:17:39.297Z,1.3
2019-04-16T05:18:41.732Z,1.4
2019-04-16T05:19:38.832Z,1.4
2019-04-16T05:20:38.826Z,1.4
2019-04-16T05:21:38.871Z,1.5
2019-04-16T05:22:38.856Z,1.5
2019-04-16T05:23:38.863Z,1.5
2019-04-16T05:24:38.877Z,1.5
2019-04-16T05:25:38.882Z,1.6
2019-04-16T05:26:38.899Z,1.6
2019-04-16T05:27:40.987Z,1.6
2019-04-16T05:28:44.258Z,1.6
2019-04-16T05:29:38.927Z,1.6
2019-04-16T05:30:38.902Z,1.6
2019-04-16T05:31:38.938Z,1.6
2019-04-16T05:32:38.931Z,1.6
2019-04-16T05:33:38.942Z,1.5
2019-04-16T05:34:38.932Z,1.6
2019-04-16T05:35:41.332Z,1.6
2019-04-16T05:36:40.226Z,1.6
2019-04-16T05:37:39.024Z,1.7
2019-04-16T05:38:39.092Z,1.7
2019-04-16T05:39:39.149Z,1.7
2019-04-16T05:40:39.221Z,1.7
2019-04-16T05:41:39.207Z,1.7
2019-04-16T05:42:39.227Z,1.7
2019-04-16T05:43:39.279Z,1.8
2019-04-16T05:44:39.329Z,1.8
2019-04-16T05:45:39.359Z,1.8
2019-04-16T05:46:41.267Z,1.8
2019-04-16T05:47:39.487Z,1.9
2019-04-16T05:48:39.555Z,1.9
2019-04-16T05:49:39.582Z,1.9
2019-04-16T05:50:39.639Z,1.9
2019-04-16T05:51:39.665Z,1.9
2019-04-16T05:52:39.727Z,1.9
2019-04-16T05:53:40.070Z,1.9
2019-04-16T05:54:41.405Z,2
2019-04-16T05:55:39.849Z,2
2019-04-16T05:56:39.838Z,2
2019-04-16T05:57:39.905Z,2
2019-04-16T05:58:39.997Z,2.1
2019-04-16T05:59:39.891Z,2.1
2019-04-16T06:00:41.599Z,2.1
2019-04-16T06:01:57.303Z,2.2
2019-04-16T06:02:40.076Z,2.2
2019-04-16T06:03:40.143Z,2.2
2019-04-16T06:04:40.113Z,2.2
2019-04-16T06:05:40.177Z,2.2
2019-04-16T06:06:40.165Z,2.2
2019-04-16T06:07:40.228Z,2.3
2019-04-16T06:08:41.485Z,2.3
2019-04-16T06:09:41.397Z,2.3
2019-04-16T06:10:40.380Z,2.4
2019-04-16T06:11:40.450Z,2.4
2019-04-16T06:12:42.934Z,2.4
2019-04-16T06:13:41.261Z,2.5
2019-04-16T06:14:40.546Z,2.5
2019-04-16T06:15:40.562Z,2.5
2019-04-16T06:16:40.621Z,2.6
2019-04-16T06:17:40.677Z,2.6
2019-04-16T06:18:40.743Z,2.7
2019-04-16T06:19:46.378Z,2.7
2019-04-16T06:20:40.833Z,2.8
2019-04-16T06:21:40.881Z,2.8
2019-04-16T06:22:40.922Z,2.9
2019-04-16T06:23:40.987Z,2.9
2019-04-16T06:24:41.005Z,3
2019-04-16T06:25:42.057Z,3.1
2019-04-16T06:26:41.104Z,3.1
2019-04-16T06:27:41.151Z,3.2
2019-04-16T06:28:41.187Z,3.3
2019-04-16T06:29:41.226Z,3.3
2019-04-16T06:30:41.290Z,3.4
2019-04-16T06:31:41.313Z,3.5
2019-04-16T06:32:41.325Z,3.6
2019-04-16T06:33:41.356Z,3.8
2019-04-16T06:34:41.390Z,3.9
2019-04-16T06:35:43.267Z,4.1
2019-04-16T06:36:41.489Z,4.2
2019-04-16T06:37:41.516Z,4.4
2019-04-16T06:38:41.535Z,4.6
2019-04-16T06:39:41.549Z,4.8
2019-04-16T06:40:41.568Z,5
2019-04-16T06:41:47.176Z,5.2
2019-04-16T06:42:41.636Z,5.4
2019-04-16T06:43:42.687Z,5.6
2019-04-16T06:44:42.780Z,5.8
2019-04-16T06:45:41.748Z,6
2019-04-16T06:46:41.763Z,6.2
2019-04-16T06:47:42.742Z,6.4
2019-04-16T06:48:42.428Z,6.5
2019-04-16T06:49:41.855Z,6.7
2019-04-16T06:50:41.882Z,6.8
2019-04-16T06:51:44.431Z,7
2019-04-16T06:52:41.918Z,7.1
2019-04-16T06:53:41.948Z,7.3
2019-04-16T06:54:45.152Z,7.4
2019-04-16T06:55:42.941Z,7.6
2019-04-16T06:56:42.042Z,7.7
2019-04-16T06:57:42.835Z,7.8
2019-04-16T06:58:50.525Z,7.9
2019-04-16T06:59:42.095Z,8.1
2019-04-16T07:00:42.125Z,8.2
2019-04-16T07:01:42.409Z,8.3
2019-04-16T07:02:43.810Z,8.4
2019-04-16T07:03:42.150Z,8.5
2019-04-16T07:04:42.176Z,8.6
2019-04-16T07:05:42.171Z,8.7
2019-04-16T07:06:43.698Z,8.8
2019-04-16T07:07:45.568Z,8.9
2019-04-16T07:08:42.225Z,9
2019-04-16T07:09:42.661Z,9.1
2019-04-16T07:10:44.541Z,9.2
2019-04-16T07:11:53.620Z,9.3
2019-04-16T07:12:42.315Z,9.4
2019-04-16T07:13:42.986Z,9.5
2019-04-16T07:14:42.363Z,9.6
2019-04-16T07:15:42.319Z,9.7
2019-04-16T07:16:42.326Z,9.8
2019-04-16T07:17:42.338Z,9.9
2019-04-16T07:18:42.369Z,9.9
2019-04-16T07:19:42.820Z,10
2019-04-16T07:20:45.641Z,10.1
2019-04-16T07:21:42.393Z,10.2
2019-04-16T07:22:42.403Z,10.3
2019-04-16T07:23:45.453Z,10.4
2019-04-16T07:24:42.436Z,10.4
2019-04-16T07:25:43.623Z,10.5
2019-04-16T07:26:46.219Z,10.5
2019-04-16T07:27:42.470Z,10.6
2019-04-16T07:28:42.833Z,10.8
2019-04-16T07:29:45.923Z,10.9
2019-04-16T07:30:42.503Z,11
2019-04-16T07:31:42.450Z,11.1
2019-04-16T07:32:42.473Z,11.2
2019-04-16T07:33:42.469Z,11.3
2019-04-16T07:34:42.539Z,11.4
2019-04-16T07:35:42.540Z,11.5
2019-04-16T07:36:42.636Z,11.6
2019-04-16T07:37:42.628Z,11.7
2019-04-16T07:38:42.641Z,11.8
2019-04-16T07:39:42.758Z,11.9
2019-04-16T07:40:42.760Z,12
2019-04-16T07:41:43.767Z,12
2019-04-16T07:42:51.507Z,12.1
2019-04-16T07:43:42.935Z,12.2
2019-04-16T07:44:43.010Z,12.2
2019-04-16T07:45:43.059Z,12.3
2019-04-16T07:46:44.110Z,12.4
2019-04-16T07:47:43.164Z,12.4
2019-04-16T07:48:43.174Z,12.5
2019-04-16T07:49:43.250Z,12.6
2019-04-16T07:50:43.271Z,12.8
2019-04-16T07:51:43.333Z,12.9
2019-04-16T07:52:43.403Z,13
2019-04-16T07:53:47.057Z,13.1
2019-04-16T07:54:43.512Z,13.2
2019-04-16T07:55:43.564Z,13.3
2019-04-16T07:56:43.623Z,13.5
2019-04-16T07:57:43.704Z,13.6
2019-04-16T07:58:43.736Z,13.8
2019-04-16T07:59:43.747Z,13.9
2019-04-16T08:00:43.760Z,14
2019-04-16T08:01:43.981Z,14.1
2019-04-16T08:02:43.871Z,14.2
2019-04-16T08:03:43.907Z,14.3
2019-04-16T08:04:44.022Z,14.4
2019-04-16T08:05:43.999Z,14.6
2019-04-16T08:06:47.112Z,14.7
2019-04-16T08:07:44.056Z,14.7
2019-04-16T08:08:44.126Z,14.8
2019-04-16T08:09:44.124Z,14.9
2019-04-16T08:10:44.151Z,15
2019-04-16T08:11:44.152Z,15
2019-04-16T08:12:44.181Z,15.1
2019-04-16T08:13:44.187Z,15.1
2019-04-16T08:14:44.247Z,15.1
2019-04-16T08:15:44.313Z,15.1
2019-04-16T08:16:47.429Z,15.2
2019-04-16T08:17:44.375Z,15.2
2019-04-16T08:18:44.391Z,15.3
2019-04-16T08:19:44.636Z,15.4
2019-04-16T08:20:44.456Z,15.4
2019-04-16T08:21:44.680Z,15.4
2019-04-16T08:22:47.156Z,15.5
2019-04-16T08:23:44.576Z,15.5
2019-04-16T08:24:44.629Z,15.5
2019-04-16T08:25:44.694Z,15.5
2019-04-16T08:26:45.343Z,15.5
2019-04-16T08:27:47.040Z,15.5
2019-04-16T08:28:44.806Z,15.5
2019-04-16T08:29:44.808Z,15.5
2019-04-16T08:30:44.812Z,15.5
2019-04-16T08:31:44.972Z,15.5
2019-04-16T08:32:45.698Z,15.5
2019-04-16T08:33:44.904Z,15.6
2019-04-16T08:34:44.946Z,15.6
2019-04-16T08:35:44.950Z,15.6
2019-04-16T08:36:44.976Z,15.7
2019-04-16T08:37:49.001Z,15.7
2019-04-16T08:38:45.053Z,15.8
2019-04-16T08:39:45.079Z,15.8
2019-04-16T08:40:46.218Z,15.8
2019-04-16T08:41:45.128Z,15.8
2019-04-16T08:42:45.236Z,15.8
2019-04-16T08:43:45.151Z,15.8
2019-04-16T08:44:45.149Z,15.8
2019-04-16T08:45:45.169Z,15.8
2019-04-16T08:46:45.242Z,15.8
2019-04-16T08:47:46.090Z,15.8
2019-04-16T08:48:48.859Z,15.9
2019-04-16T08:49:45.309Z,15.9
2019-04-16T08:50:45.352Z,15.9
2019-04-16T08:51:45.375Z,15.9
2019-04-16T08:52:45.424Z,15.9
2019-04-16T08:53:46.618Z,15.9
2019-04-16T08:54:49.945Z,15.9
2019-04-16T08:55:45.528Z,15.9
2019-04-16T08:56:45.665Z,15.9
2019-04-16T08:57:46.993Z,15.9
2019-04-16T08:58:45.631Z,16
2019-04-16T08:59:45.660Z,16.1
2019-04-16T09:00:46.344Z,16.1
2019-04-16T09:01:45.698Z,16.1
2019-04-16T09:02:45.717Z,16.1
2019-04-16T09:03:45.732Z,16.2
2019-04-16T09:04:45.909Z,16.3
2019-04-16T09:05:45.774Z,16.4
2019-04-16T09:06:47.033Z,16.4
2019-04-16T09:07:50.575Z,16.5
2019-04-16T09:08:45.812Z,16.5
2019-04-16T09:09:45.832Z,16.6
2019-04-16T09:10:45.852Z,16.7
2019-04-16T09:11:48.418Z,16.7
2019-04-16T09:12:55.903Z,16.7
2019-04-16T09:13:47.925Z,16.7
2019-04-16T09:14:45.935Z,16.7
2019-04-16T09:15:45.984Z,16.7
2019-04-16T09:16:45.998Z,16.7
2019-04-16T09:17:46.019Z,16.7
2019-04-16T09:18:46.055Z,16.7
2019-04-16T09:19:46.038Z,16.7
2019-04-16T09:20:46.087Z,16.7
2019-04-16T09:21:46.103Z,16.7
2019-04-16T09:22:49.043Z,16.6
2019-04-16T09:23:46.119Z,16.6
2019-04-16T09:24:46.170Z,16.6
2019-04-16T09:25:46.660Z,16.5
2019-04-16T09:26:46.194Z,16.5
2019-04-16T09:27:46.184Z,16.5
2019-04-16T09:28:46.207Z,16.6
2019-04-16T09:29:46.210Z,16.7
2019-04-16T09:30:46.574Z,16.7
2019-04-16T09:31:46.302Z,16.8
2019-04-16T09:32:46.262Z,16.8
2019-04-16T09:33:46.263Z,16.8
2019-04-16T09:34:46.307Z,16.9
2019-04-16T09:35:46.299Z,16.9
2019-04-16T09:36:46.302Z,17
2019-04-16T09:37:46.291Z,17
2019-04-16T09:38:46.506Z,17
2019-04-16T09:39:46.342Z,17
2019-04-16T09:40:48.887Z,16.9
2019-04-16T09:41:46.350Z,16.9
2019-04-16T09:42:46.386Z,16.9
2019-04-16T09:43:46.471Z,16.8
2019-04-16T09:44:46.363Z,16.9
2019-04-16T09:45:46.394Z,16.9
2019-04-16T09:46:50.789Z,17
2019-04-16T09:47:46.383Z,17.1
2019-04-16T09:48:49.688Z,17.2
2019-04-16T09:49:46.389Z,17.2
2019-04-16T09:50:48.388Z,17.3
2019-04-16T09:51:46.429Z,17.2
2019-04-16T09:52:46.567Z,17.2
2019-04-16T09:53:46.575Z,17.2
2019-04-16T09:54:46.629Z,17.3
2019-04-16T09:55:47.492Z,17.3
2019-04-16T09:56:46.696Z,17.4
2019-04-16T09:57:46.725Z,17.5
2019-04-16T09:58:46.793Z,17.5
2019-04-16T09:59:47.626Z,17.5
2019-04-16T10:00:47.201Z,17.5
2019-04-16T10:01:46.957Z,17.4
2019-04-16T10:02:47.010Z,17.3
2019-04-16T10:03:47.068Z,17.3
2019-04-16T10:04:47.129Z,17.2
2019-04-16T10:05:47.140Z,17.2
2019-04-16T10:06:47.154Z,17.1
2019-04-16T10:07:47.203Z,17.1
2019-04-16T10:08:47.273Z,17.1
2019-04-16T10:09:47.346Z,17.1
2019-04-16T10:10:47.387Z,17.2
2019-04-16T10:11:47.462Z,17.2
2019-04-16T10:12:47.498Z,17.3
2019-04-16T10:13:47.532Z,17.3
2019-04-16T10:14:47.591Z,17.4
2019-04-16T10:15:47.648Z,17.4
2019-04-16T10:16:47.720Z,17.4
2019-04-16T10:17:47.778Z,17.5
2019-04-16T10:18:47.817Z,17.5
2019-04-16T10:19:47.893Z,17.6
2019-04-16T10:21:52.901Z,17.7
2019-04-16T10:22:48.028Z,17.7
2019-04-16T10:23:48.089Z,17.7
2019-04-16T10:24:48.154Z,17.7
2019-04-16T10:25:48.206Z,17.7
2019-04-16T10:26:48.263Z,17.7
2019-04-16T10:27:48.294Z,17.8
2019-04-16T10:28:48.337Z,17.9
2019-04-16T10:29:48.386Z,18
2019-04-16T10:30:48.436Z,18
2019-04-16T10:31:48.447Z,18.1
2019-04-16T10:32:48.492Z,18.2
2019-04-16T10:33:48.567Z,18.3
2019-04-16T10:34:48.569Z,18.5
2019-04-16T10:35:48.611Z,18.5
2019-04-16T10:36:48.640Z,18.4
2019-04-16T10:37:48.621Z,18.3
2019-04-16T10:38:48.657Z,18.3
2019-04-16T10:39:48.698Z,18.2
2019-04-16T10:40:48.724Z,18.2
2019-04-16T10:41:48.722Z,18.2
2019-04-16T10:42:48.761Z,18.2
2019-04-16T10:43:48.840Z,18.2
2019-04-16T10:44:48.883Z,18.2
2019-04-16T10:45:48.876Z,18.2
2019-04-16T10:46:48.940Z,18.1
2019-04-16T10:47:48.975Z,18.1
2019-04-16T10:48:48.962Z,18
2019-04-16T10:49:49.017Z,18
2019-04-16T10:50:48.992Z,18
2019-04-16T10:51:49.024Z,17.9
2019-04-16T10:52:53.944Z,17.9
2019-04-16T10:53:49.083Z,17.9
2019-04-16T10:54:49.086Z,18
2019-04-16T10:55:49.369Z,18
2019-04-16T10:56:49.205Z,18.1
2019-04-16T10:57:49.118Z,18.1
2019-04-16T10:58:49.139Z,18.1
2019-04-16T10:59:49.169Z,18.1
2019-04-16T11:00:49.188Z,18
2019-04-16T11:01:49.227Z,18
2019-04-16T11:02:49.220Z,18
2019-04-16T11:03:49.259Z,18
2019-04-16T11:04:49.312Z,18
2019-04-16T11:05:49.313Z,18
2019-04-16T11:06:49.428Z,18.1
2019-04-16T11:07:49.355Z,18.1
2019-04-16T11:08:49.379Z,18.1
2019-04-16T11:09:49.374Z,18.1
2019-04-16T11:10:49.469Z,18.1
2019-04-16T11:11:49.468Z,18.1
2019-04-16T11:12:49.492Z,18
2019-04-16T11:13:59.560Z,18
2019-04-16T11:14:49.531Z,18
2019-04-16T11:15:49.492Z,18
2019-04-16T11:16:49.496Z,18.1
2019-04-16T11:17:49.533Z,18.2
2019-04-16T11:18:49.552Z,18.3
2019-04-16T11:19:52.422Z,18.3
2019-04-16T11:20:49.573Z,18.3
2019-04-16T11:21:49.568Z,18.3
2019-04-16T11:22:49.597Z,18.3
2019-04-16T11:23:49.616Z,18.2
2019-04-16T11:24:49.624Z,18.2
2019-04-16T11:25:49.694Z,18.2
2019-04-16T11:26:49.628Z,18.2
2019-04-16T11:27:49.656Z,18.2
2019-04-16T11:28:49.656Z,18.2
2019-04-16T11:29:49.642Z,18.2
2019-04-16T11:30:49.667Z,18.2
2019-04-16T11:31:49.697Z,18.2
2019-04-16T11:32:53.049Z,18.3
2019-04-16T11:33:49.662Z,18.3
2019-04-16T11:34:49.721Z,18.4
2019-04-16T11:35:56.913Z,18.5
2019-04-16T11:36:49.743Z,18.5
2019-04-16T11:37:49.705Z,18.6
2019-04-16T11:38:49.670Z,18.6
2019-04-16T11:39:49.759Z,18.6
2019-04-16T11:40:49.891Z,18.7
2019-04-16T11:41:52.290Z,18.7
2019-04-16T11:42:49.853Z,18.7
2019-04-16T11:43:49.872Z,18.7
2019-04-16T11:44:50.336Z,18.7
2019-04-16T11:45:49.942Z,18.7
2019-04-16T11:46:49.995Z,18.7
2019-04-16T11:47:50.019Z,18.7
2019-04-16T11:48:50.403Z,18.7
2019-04-16T11:49:50.142Z,18.7
2019-04-16T11:50:50.191Z,18.7
2019-04-16T11:51:50.272Z,18.8
2019-04-16T11:52:50.327Z,18.8
2019-04-16T11:53:50.348Z,18.8
2019-04-16T11:54:50.334Z,18.8
2019-04-16T11:55:50.407Z,18.7
2019-04-16T11:56:50.435Z,18.7
2019-04-16T11:57:50.519Z,18.7
2019-04-16T11:58:50.556Z,18.7
2019-04-16T12:00:05.746Z,18.6
2019-04-16T12:00:50.765Z,18.6
2019-04-16T12:01:50.722Z,18.6
2019-04-16T12:02:50.775Z,18.6
2019-04-16T12:03:50.812Z,18.6
2019-04-16T12:04:50.917Z,18.5
2019-04-16T12:05:50.892Z,18.6
2019-04-16T12:06:50.897Z,18.6
2019-04-16T12:07:50.982Z,18.6
2019-04-16T12:08:51.068Z,18.6
2019-04-16T12:09:51.002Z,18.6
2019-04-16T12:10:51.005Z,18.6
2019-04-16T12:11:51.046Z,18.6
2019-04-16T12:12:51.112Z,18.6
2019-04-16T12:13:51.177Z,18.6
2019-04-16T12:14:51.153Z,18.6
2019-04-16T12:15:51.222Z,18.7
2019-04-16T12:16:51.259Z,18.7
2019-04-16T12:17:51.323Z,18.7
2019-04-16T12:18:51.235Z,18.8
2019-04-16T12:19:51.264Z,18.8
2019-04-16T12:20:51.295Z,18.7
2019-04-16T12:21:51.376Z,18.7
2019-04-16T12:22:51.387Z,18.6
2019-04-16T12:23:51.395Z,18.6
2019-04-16T12:24:51.447Z,18.5
2019-04-16T12:25:51.497Z,18.5
2019-04-16T12:26:51.516Z,18.6
2019-04-16T12:27:51.541Z,18.7
2019-04-16T12:28:51.672Z,18.8
2019-04-16T12:29:51.624Z,18.9
2019-04-16T12:30:51.695Z,18.9
2019-04-16T12:31:51.741Z,19
2019-04-16T12:32:51.735Z,19.1
2019-04-16T12:33:51.788Z,19.2
2019-04-16T12:34:51.786Z,19.3
2019-04-16T12:35:51.831Z,19.4
2019-04-16T12:36:51.867Z,19.5
2019-04-16T12:37:51.825Z,19.6
2019-04-16T12:38:51.842Z,19.7
2019-04-16T12:39:51.928Z,19.8
2019-04-16T12:40:51.895Z,19.8
2019-04-16T12:41:51.885Z,19.7
2019-04-16T12:42:51.921Z,19.6
2019-04-16T12:43:51.912Z,19.5
2019-04-16T12:44:51.940Z,19.5
2019-04-16T12:45:53.473Z,19.5
2019-04-16T12:46:51.979Z,19.6
2019-04-16T12:47:51.990Z,19.6
2019-04-16T12:48:52.068Z,19.6
2019-04-16T12:49:52.124Z,19.5
2019-04-16T12:50:52.075Z,19.5
2019-04-16T12:51:52.113Z,19.4
2019-04-16T12:52:54.899Z,19.3
2019-04-16T12:53:53.334Z,19.3
2019-04-16T12:54:58.121Z,19.2
2019-04-16T12:55:52.207Z,19.2
2019-04-16T12:56:52.280Z,19.2
2019-04-16T12:57:52.264Z,19.1
2019-04-16T12:58:52.326Z,19.1
2019-04-16T12:59:54.930Z,19
2019-04-16T13:00:52.319Z,19.1
2019-04-16T13:01:52.344Z,19.1
2019-04-16T13:02:52.370Z,19
2019-04-16T13:03:53.289Z,19
2019-04-16T13:04:52.382Z,19
2019-04-16T13:05:53.857Z,19
2019-04-16T13:06:52.426Z,19.1
2019-04-16T13:07:52.451Z,19.1
2019-04-16T13:08:53.541Z,19.2
2019-04-16T13:09:52.430Z,19.2
2019-04-16T13:10:52.487Z,19.2
2019-04-16T13:11:52.487Z,19.2
2019-04-16T13:12:52.498Z,19.2
2019-04-16T13:13:52.492Z,19.3
2019-04-16T13:15:00.278Z,19.3
2019-04-16T13:15:52.531Z,19.3
2019-04-16T13:16:52.603Z,19.3
2019-04-16T13:17:52.625Z,19.2
2019-04-16T13:18:52.535Z,19.1
2019-04-16T13:19:52.554Z,19.1
2019-04-16T13:20:52.580Z,19
2019-04-16T13:21:52.687Z,18.9
2019-04-16T13:22:52.687Z,18.9
2019-04-16T13:23:52.600Z,18.9
2019-04-16T13:24:52.615Z,19
2019-04-16T13:25:52.592Z,18.9
2019-04-16T13:26:52.583Z,18.9
2019-04-16T13:27:52.619Z,18.8
2019-04-16T13:28:55.088Z,18.8
2019-04-16T13:29:52.629Z,18.8
2019-04-16T13:30:52.698Z,18.8
2019-04-16T13:31:52.677Z,18.9
2019-04-16T13:32:52.787Z,18.9
2019-04-16T13:33:52.841Z,19
2019-04-16T13:34:52.892Z,19.1
2019-04-16T13:35:52.962Z,19.1
2019-04-16T13:36:52.968Z,19.1
2019-04-16T13:37:52.990Z,19.2
2019-04-16T13:38:53.004Z,19.2